createdAt,value
2022-11-27T00:00:17.953Z,9.95
2022-11-27T00:03:21.673Z,10.11
2022-11-27T00:06:29.425Z,10.12
2022-11-27T00:09:33.666Z,10.20
2022-11-27T00:12:37.750Z,10.22
2022-11-27T00:15:41.485Z,9.95
2022-11-27T00:18:45.823Z,9.57
2022-11-27T00:21:50.908Z,10.07
2022-11-27T00:24:54.708Z,10.17
2022-11-27T00:27:58.496Z,9.70
2022-11-27T00:31:02.800Z,9.70
2022-11-27T00:34:08.373Z,9.90
2022-11-27T00:37:15.123Z,10.01
2022-11-27T00:40:19.066Z,9.86
2022-11-27T00:43:23.102Z,9.89
2022-11-27T00:46:29.490Z,9.88
2022-11-27T00:49:33.587Z,9.83
2022-11-27T00:52:38.676Z,9.82
2022-11-27T00:55:42.495Z,9.96
2022-11-27T00:58:46.933Z,9.73
2022-11-27T01:01:50.668Z,9.54
2022-11-27T01:04:54.587Z,9.56
2022-11-27T01:07:59.756Z,9.62
2022-11-27T01:11:03.653Z,9.64
2022-11-27T01:14:10.243Z,9.61
2022-11-27T01:17:13.983Z,9.59
2022-11-27T01:20:17.706Z,9.58
2022-11-27T01:23:23.350Z,9.58
2022-11-27T01:26:27.453Z,9.53
2022-11-27T01:29:30.937Z,9.59
2022-11-27T01:32:34.556Z,9.62
2022-11-27T01:35:38.225Z,9.60
2022-11-27T01:38:45.421Z,9.52
2022-11-27T01:41:52.203Z,9.72
2022-11-27T01:44:56.856Z,9.62
2022-11-27T01:48:04.543Z,9.36
2022-11-27T01:51:08.227Z,9.39
2022-11-27T01:54:14.606Z,9.27
2022-11-27T01:57:21.788Z,9.37
2022-11-27T02:00:26.697Z,9.39
2022-11-27T02:03:30.368Z,9.27
2022-11-27T02:06:34.044Z,9.52
2022-11-27T02:09:39.464Z,9.37
2022-11-27T02:12:52.211Z,9.35
2022-11-27T02:16:04.926Z,9.37
2022-11-27T02:19:20.219Z,9.24
2022-11-27T02:22:36.937Z,9.34
2022-11-27T02:25:53.148Z,9.25
2022-11-27T02:29:03.737Z,8.89
2022-11-27T02:32:13.848Z,9.01
2022-11-27T02:35:20.488Z,8.54
2022-11-27T02:38:29.327Z,8.85
2022-11-27T02:41:39.977Z,8.89
2022-11-27T02:44:49.372Z,8.47
2022-11-27T02:47:53.274Z,8.49
2022-11-27T02:50:58.020Z,8.79
2022-11-27T02:54:05.669Z,8.64
2022-11-27T02:57:13.574Z,9.13
2022-11-27T03:00:19.787Z,9.34
2022-11-27T03:03:28.197Z,9.46
2022-11-27T03:06:34.853Z,9.49
2022-11-27T03:09:41.635Z,9.30
2022-11-27T03:12:45.310Z,9.44
2022-11-27T03:16:01.581Z,9.59
2022-11-27T03:19:14.225Z,9.61
2022-11-27T03:22:18.753Z,9.26
2022-11-27T03:25:22.950Z,9.41
2022-11-27T03:28:26.978Z,9.27
2022-11-27T03:31:32.936Z,9.48
2022-11-27T03:34:38.309Z,9.49
2022-11-27T03:37:42.656Z,9.60
2022-11-27T03:40:55.803Z,9.53
2022-11-27T03:44:08.231Z,9.45
2022-11-27T03:47:27.627Z,9.58
2022-11-27T03:50:43.002Z,9.53
2022-11-27T03:53:54.394Z,9.48
2022-11-27T03:57:03.674Z,9.39
2022-11-27T04:00:10.418Z,9.46
2022-11-27T04:03:15.616Z,9.33
2022-11-27T04:06:19.462Z,9.43
2022-11-27T04:09:23.211Z,9.45
2022-11-27T04:12:26.904Z,9.45
2022-11-27T04:15:30.655Z,9.37
2022-11-27T04:18:35.796Z,9.35
2022-11-27T04:21:39.387Z,9.24
2022-11-27T04:24:43.094Z,9.38
2022-11-27T04:27:46.756Z,9.25
2022-11-27T04:30:54.086Z,8.82
2022-11-27T04:33:59.022Z,8.72
2022-11-27T04:37:02.519Z,8.85
2022-11-27T04:40:07.554Z,8.93
2022-11-27T04:43:11.136Z,8.25
2022-11-27T04:46:14.962Z,8.64
2022-11-27T04:49:20.080Z,8.51
2022-11-27T04:52:23.521Z,8.47
2022-11-27T04:55:27.201Z,8.57
2022-11-27T04:58:30.805Z,8.71
2022-11-27T05:01:34.453Z,8.91
2022-11-27T05:04:39.666Z,9.02
2022-11-27T05:07:43.442Z,9.10
2022-11-27T05:10:47.844Z,9.09
2022-11-27T05:14:11.357Z,8.94
2022-11-27T05:17:14.921Z,9.06
2022-11-27T05:20:20.045Z,9.04
2022-11-27T05:23:23.591Z,8.98
2022-11-27T05:26:27.137Z,8.79
2022-11-27T05:29:30.951Z,8.95
2022-11-27T05:32:34.535Z,8.99
2022-11-27T05:35:39.563Z,9.13
2022-11-27T05:38:43.165Z,9.07
2022-11-27T05:41:47.008Z,9.18
2022-11-27T05:44:55.239Z,9.00
2022-11-27T05:48:00.330Z,8.95
2022-11-27T05:51:06.615Z,8.88
2022-11-27T05:54:10.286Z,8.90
2022-11-27T05:57:13.868Z,9.05
2022-11-27T06:00:18.250Z,8.96
2022-11-27T06:03:21.924Z,9.03
2022-11-27T06:06:27.014Z,8.83
2022-11-27T06:09:30.693Z,9.01
2022-11-27T06:12:34.706Z,9.14
2022-11-27T06:15:40.139Z,9.26
2022-11-27T06:18:43.990Z,9.23
2022-11-27T06:21:49.086Z,9.34
2022-11-27T06:24:52.896Z,9.22
2022-11-27T06:27:56.727Z,9.25
2022-11-27T06:31:00.411Z,9.24
2022-11-27T06:34:04.926Z,9.11
2022-11-27T06:37:13.209Z,9.25
2022-11-27T06:40:17.511Z,9.32
2022-11-27T06:43:21.489Z,9.43
2022-11-27T06:46:25.373Z,9.46
2022-11-27T06:49:29.087Z,9.54
2022-11-27T06:52:39.978Z,9.51
2022-11-27T06:55:44.304Z,9.31
2022-11-27T06:58:48.591Z,9.49
2022-11-27T07:01:52.457Z,9.52
2022-11-27T07:04:56.316Z,9.27
2022-11-27T07:08:01.800Z,9.38
2022-11-27T07:11:06.740Z,9.55
2022-11-27T07:14:11.578Z,9.28
2022-11-27T07:17:15.299Z,9.46
2022-11-27T07:20:19.089Z,9.54
2022-11-27T07:23:24.409Z,9.83
2022-11-27T07:26:30.488Z,9.88
2022-11-27T07:29:34.276Z,9.74
2022-11-27T07:32:38.060Z,9.78
2022-11-27T07:35:41.659Z,9.90
2022-11-27T07:38:47.149Z,10.14
2022-11-27T07:41:51.007Z,10.23
2022-11-27T07:44:54.739Z,10.31
2022-11-27T07:47:58.410Z,10.49
2022-11-27T07:51:02.256Z,10.47
2022-11-27T07:54:07.601Z,10.27
2022-11-27T07:57:11.396Z,10.54
2022-11-27T08:00:16.050Z,10.67
2022-11-27T08:03:21.145Z,10.88
2022-11-27T08:06:27.130Z,10.88
2022-11-27T08:12:36.615Z,9.85
2022-11-27T08:15:40.436Z,10.09
2022-11-27T08:18:44.316Z,9.94
2022-11-27T08:21:48.032Z,10.23
2022-11-27T08:24:53.273Z,10.38
2022-11-27T08:27:56.970Z,10.63
2022-11-27T08:31:01.138Z,10.71
2022-11-27T08:34:05.179Z,10.66
2022-11-27T08:37:09.239Z,10.86
2022-11-27T08:40:14.661Z,10.94
2022-11-27T08:43:18.366Z,11.32
2022-11-27T08:46:22.130Z,11.42
2022-11-27T08:49:26.028Z,11.04
2022-11-27T08:52:29.799Z,10.99
2022-11-27T08:55:35.036Z,11.01
2022-11-27T08:58:41.309Z,11.09
2022-11-27T09:01:44.989Z,10.89
2022-11-27T09:04:48.780Z,11.12
2022-11-27T09:07:52.946Z,11.55
2022-11-27T09:11:02.167Z,11.54
2022-11-27T09:14:07.229Z,10.94
2022-11-27T09:17:10.924Z,11.00
2022-11-27T09:20:16.255Z,11.25
2022-11-27T09:23:20.000Z,11.63
2022-11-27T09:26:26.589Z,11.61
2022-11-27T09:29:30.407Z,11.56
2022-11-27T09:32:34.181Z,11.85
2022-11-27T09:35:39.423Z,11.94
2022-11-27T09:38:43.817Z,12.23
2022-11-27T09:41:53.026Z,12.24
2022-11-27T09:45:00.717Z,12.34
2022-11-27T09:48:08.929Z,12.14
2022-11-27T09:51:16.779Z,12.07
2022-11-27T09:54:26.020Z,12.32
2022-11-27T09:57:35.941Z,12.15
2022-11-27T10:00:39.621Z,12.26
2022-11-27T10:03:44.770Z,12.33
2022-11-27T10:07:03.348Z,12.52
2022-11-27T10:10:22.050Z,12.57
2022-11-27T10:13:44.326Z,12.10
2022-11-27T10:16:52.866Z,11.94
2022-11-27T10:20:03.864Z,12.12
2022-11-27T10:23:16.507Z,12.06
2022-11-27T10:26:26.019Z,12.46
2022-11-27T10:29:38.088Z,12.17
2022-11-27T10:32:57.655Z,12.51
2022-11-27T10:36:02.891Z,12.70
2022-11-27T10:39:14.468Z,12.64
2022-11-27T10:42:25.439Z,12.80
2022-11-27T10:45:39.582Z,12.79
2022-11-27T10:48:43.449Z,12.68
2022-11-27T10:51:47.339Z,12.57
2022-11-27T10:54:56.580Z,13.18
2022-11-27T10:58:10.197Z,13.35
2022-11-27T11:01:17.238Z,14.11
2022-11-27T11:04:37.496Z,14.06
2022-11-27T11:07:42.223Z,14.07
2022-11-27T11:10:52.569Z,13.53
2022-11-27T11:13:57.176Z,13.43
2022-11-27T11:17:02.419Z,13.61
2022-11-27T11:20:20.659Z,13.37
2022-11-27T11:23:30.986Z,12.95
2022-11-27T11:26:39.506Z,12.95
2022-11-27T11:29:48.966Z,13.23
2022-11-27T11:33:03.258Z,13.33
2022-11-27T11:36:12.410Z,13.18
2022-11-27T11:39:24.430Z,13.24
2022-11-27T11:42:30.279Z,12.89
2022-11-27T11:45:35.768Z,13.23
2022-11-27T11:48:41.141Z,13.49
2022-11-27T11:52:10.926Z,13.43
2022-11-27T11:55:20.506Z,13.45
2022-11-27T11:58:51.775Z,13.15
2022-11-27T12:02:27.810Z,13.30
2022-11-27T12:05:42.516Z,12.96
2022-11-27T12:08:59.210Z,13.17
2022-11-27T12:12:12.089Z,13.58
2022-11-27T12:15:23.977Z,13.66
2022-11-27T12:18:44.158Z,13.78
2022-11-27T12:21:57.151Z,13.32
2022-11-27T12:25:11.436Z,13.81
2022-11-27T12:28:34.709Z,13.85
2022-11-27T12:31:56.552Z,13.88
2022-11-27T12:35:20.329Z,13.61
2022-11-27T12:38:42.246Z,13.64
2022-11-27T12:41:59.217Z,13.80
2022-11-27T12:45:07.957Z,13.72
2022-11-27T12:48:18.407Z,13.62
2022-11-27T12:51:25.851Z,13.41
2022-11-27T12:54:34.201Z,13.63
2022-11-27T12:57:45.310Z,13.53
2022-11-27T13:00:50.936Z,13.16
2022-11-27T13:04:07.286Z,13.11
2022-11-27T13:07:15.710Z,13.23
2022-11-27T13:10:30.076Z,13.38
2022-11-27T13:13:39.138Z,13.49
2022-11-27T13:16:46.915Z,13.48
2022-11-27T13:19:52.477Z,13.43
2022-11-27T13:22:56.287Z,13.05
2022-11-27T13:26:05.486Z,13.06
2022-11-27T13:29:19.917Z,13.13
2022-11-27T13:32:26.640Z,12.91
2022-11-27T13:35:33.101Z,13.22
2022-11-27T13:38:42.074Z,12.95
2022-11-27T13:41:49.226Z,13.05
2022-11-27T13:44:56.892Z,13.08
2022-11-27T13:48:03.418Z,13.10
2022-11-27T13:51:09.997Z,12.91
2022-11-27T13:54:16.052Z,12.96
2022-11-27T13:57:22.287Z,13.01
2022-11-27T14:00:35.907Z,12.96
2022-11-27T14:03:39.947Z,12.93
2022-11-27T14:06:44.596Z,12.93
2022-11-27T14:09:51.339Z,12.74
2022-11-27T14:13:01.860Z,12.75
2022-11-27T14:16:27.027Z,12.63
2022-11-27T14:19:35.289Z,12.46
2022-11-27T14:23:09.829Z,12.51
2022-11-27T14:26:24.690Z,12.58
2022-11-27T14:29:32.657Z,12.47
2022-11-27T14:32:39.031Z,12.26
2022-11-27T14:35:42.921Z,12.32
2022-11-27T14:38:49.820Z,12.40
2022-11-27T14:42:02.129Z,12.42
2022-11-27T14:45:09.680Z,11.84
2022-11-27T14:48:25.397Z,11.99
2022-11-27T14:51:31.051Z,11.98
2022-11-27T14:54:38.554Z,11.91
2022-11-27T14:57:42.988Z,11.90
2022-11-27T15:00:57.617Z,11.96
2022-11-27T15:04:02.840Z,11.97
2022-11-27T15:07:14.684Z,12.00
2022-11-27T15:10:36.112Z,11.90
2022-11-27T15:13:40.181Z,11.98
2022-11-27T15:16:50.313Z,12.11
2022-11-27T15:19:55.372Z,11.95
2022-11-27T15:23:00.606Z,12.08
2022-11-27T15:26:15.912Z,12.06
2022-11-27T15:29:38.429Z,12.01
2022-11-27T15:32:53.621Z,11.96
2022-11-27T15:36:18.209Z,11.94
2022-11-27T15:39:27.047Z,11.87
2022-11-27T15:42:32.857Z,11.93
2022-11-27T15:45:43.717Z,11.81
2022-11-27T15:48:51.447Z,11.72
2022-11-27T15:51:58.360Z,11.87
2022-11-27T15:55:04.200Z,11.91
2022-11-27T15:58:10.380Z,11.77
2022-11-27T16:01:15.960Z,11.70
2022-11-27T16:04:23.430Z,11.73
2022-11-27T16:07:29.070Z,11.55
2022-11-27T16:10:34.980Z,11.59
2022-11-27T16:13:40.637Z,11.47
2022-11-27T16:16:48.839Z,11.47
2022-11-27T16:19:56.336Z,11.47
2022-11-27T16:23:01.931Z,11.54
2022-11-27T16:26:08.158Z,11.53
2022-11-27T16:29:14.700Z,11.52
2022-11-27T16:32:20.858Z,11.48
2022-11-27T16:35:29.209Z,11.49
2022-11-27T16:38:36.111Z,11.41
2022-11-27T16:41:41.360Z,11.48
2022-11-27T16:44:47.931Z,11.46
2022-11-27T16:47:53.916Z,11.50
2022-11-27T16:51:07.141Z,11.57
2022-11-27T16:54:15.280Z,11.62
2022-11-27T16:57:21.694Z,11.65
2022-11-27T17:00:28.277Z,11.52
2022-11-27T17:03:34.526Z,11.36
2022-11-27T17:06:42.350Z,11.51
2022-11-27T17:09:48.459Z,11.49
2022-11-27T17:12:54.979Z,11.52
2022-11-27T17:16:04.207Z,11.60
2022-11-27T17:19:14.206Z,11.61
2022-11-27T17:22:22.076Z,11.60
2022-11-27T17:25:28.760Z,11.62
2022-11-27T17:28:36.503Z,11.39
2022-11-27T17:31:43.033Z,11.48
2022-11-27T17:34:51.769Z,11.45
2022-11-27T17:38:01.097Z,11.42
2022-11-27T17:41:09.016Z,11.53
2022-11-27T17:44:15.616Z,11.58
2022-11-27T17:47:22.085Z,11.58
2022-11-27T17:50:31.178Z,11.58
2022-11-27T17:53:39.743Z,11.53
2022-11-27T17:56:51.674Z,11.50
2022-11-27T17:59:59.041Z,11.47
2022-11-27T18:03:07.488Z,11.33
2022-11-27T18:06:18.950Z,11.33
2022-11-27T18:09:26.886Z,11.41
2022-11-27T18:12:33.076Z,11.39
2022-11-27T18:15:39.655Z,10.98
2022-11-27T18:18:46.451Z,11.14
2022-11-27T18:21:52.829Z,11.34
2022-11-27T18:25:00.849Z,11.45
2022-11-27T18:28:07.537Z,10.94
2022-11-27T18:31:15.295Z,11.19
2022-11-27T18:34:22.057Z,11.07
2022-11-27T18:37:28.539Z,11.21
2022-11-27T18:40:41.675Z,11.34
2022-11-27T18:43:49.159Z,11.30
2022-11-27T18:46:58.445Z,11.45
2022-11-27T18:50:05.270Z,11.48
2022-11-27T18:53:13.911Z,11.49
2022-11-27T18:56:23.295Z,11.43
2022-11-27T18:59:29.998Z,11.51
2022-11-27T19:02:36.986Z,11.51
2022-11-27T19:05:43.298Z,11.54
2022-11-27T19:08:50.622Z,11.57
2022-11-27T19:11:59.099Z,11.60
2022-11-27T19:15:05.480Z,11.54
2022-11-27T19:18:12.553Z,11.52
2022-11-27T19:21:20.828Z,11.44
2022-11-27T19:24:28.579Z,11.56
2022-11-27T19:27:36.585Z,11.53
2022-11-27T19:30:45.208Z,11.32
2022-11-27T19:33:55.225Z,11.40
2022-11-27T19:37:01.955Z,11.44
2022-11-27T19:40:13.009Z,11.58
2022-11-27T19:43:21.519Z,11.45
2022-11-27T19:46:29.578Z,11.13
2022-11-27T19:49:38.831Z,10.99
2022-11-27T19:52:46.827Z,11.24
2022-11-27T19:55:56.498Z,11.19
2022-11-27T19:59:05.175Z,11.04
2022-11-27T20:02:15.468Z,11.06
2022-11-27T20:05:22.197Z,10.84
2022-11-27T20:08:28.804Z,10.88
2022-11-27T20:11:47.805Z,11.12
2022-11-27T20:14:59.721Z,11.04
2022-11-27T20:18:10.504Z,10.93
2022-11-27T20:21:19.587Z,10.97
2022-11-27T20:24:26.906Z,10.87
2022-11-27T20:27:33.089Z,10.93
2022-11-27T20:30:44.716Z,10.72
2022-11-27T20:33:52.009Z,10.83
2022-11-27T20:36:58.555Z,10.78
2022-11-27T20:40:05.430Z,10.78
2022-11-27T20:43:11.961Z,10.29
2022-11-27T20:46:21.100Z,10.68
2022-11-27T20:49:28.128Z,10.50
2022-11-27T20:52:35.519Z,10.58
2022-11-27T20:55:41.765Z,10.53
2022-11-27T20:58:47.579Z,10.79
2022-11-27T21:01:54.981Z,10.63
2022-11-27T21:05:00.655Z,10.45
2022-11-27T21:08:06.105Z,10.58
2022-11-27T21:11:13.647Z,10.64
2022-11-27T21:14:20.041Z,10.59
2022-11-27T21:17:28.176Z,10.46
2022-11-27T21:20:33.268Z,10.67
2022-11-27T21:23:38.158Z,10.61
2022-11-27T21:26:43.411Z,10.51
2022-11-27T21:29:47.725Z,10.38
2022-11-27T21:32:54.755Z,10.45
2022-11-27T21:35:59.507Z,10.27
2022-11-27T21:39:06.059Z,10.50
2022-11-27T21:42:10.065Z,10.61
2022-11-27T21:45:15.009Z,10.33
2022-11-27T21:48:20.808Z,10.22
2022-11-27T21:51:26.305Z,10.48
2022-11-27T21:54:30.054Z,10.32
2022-11-27T21:57:33.869Z,10.23
2022-11-27T22:00:38.685Z,10.23
2022-11-27T22:03:44.346Z,10.39
2022-11-27T22:06:48.381Z,10.29
2022-11-27T22:09:52.439Z,10.67
2022-11-27T22:12:56.411Z,10.67
2022-11-27T22:16:00.089Z,10.62
2022-11-27T22:19:06.395Z,10.43
2022-11-27T22:22:10.499Z,10.23
2022-11-27T22:25:15.134Z,10.28
2022-11-27T22:28:19.686Z,10.14
2022-11-27T22:31:25.446Z,10.28
2022-11-27T22:34:31.055Z,9.96
2022-11-27T22:37:35.009Z,9.33
2022-11-27T22:40:39.211Z,9.84
2022-11-27T22:43:43.479Z,9.57
2022-11-27T22:46:48.113Z,9.31
2022-11-27T22:49:53.794Z,9.43
2022-11-27T22:52:58.456Z,9.57
2022-11-27T22:56:06.812Z,9.08
2022-11-27T22:59:31.547Z,9.27
2022-11-27T23:02:39.425Z,9.06
2022-11-27T23:05:47.124Z,9.06
2022-11-27T23:08:52.227Z,9.17
2022-11-27T23:11:56.692Z,9.25
2022-11-27T23:15:00.380Z,9.13
2022-11-27T23:18:04.623Z,9.18
2022-11-27T23:21:11.421Z,9.45
2022-11-27T23:24:16.579Z,9.60
2022-11-27T23:27:20.447Z,9.49
2022-11-27T23:30:24.320Z,9.39
2022-11-27T23:33:28.117Z,9.11
2022-11-27T23:36:34.614Z,8.99
2022-11-27T23:39:38.594Z,9.23
2022-11-27T23:42:42.988Z,9.27
2022-11-27T23:45:46.919Z,9.38
2022-11-27T23:48:50.948Z,9.35
2022-11-27T23:51:56.236Z,8.84
2022-11-27T23:54:59.941Z,9.33
2022-11-27T23:58:04.006Z,9.43
